sensor_id;sensor_type;location;lat;lon;timestamp;pressure;altitude;pressure_sealevel;temperature
50206;BMP280;36098;48.390;10.856;2023-05-07T00:01:28;96008.16;;;24.07
50206;BMP280;36098;48.390;10.856;2023-05-07T00:03:53;96010.50;;;24.08
50206;BMP280;36098;48.390;10.856;2023-05-07T00:06:18;96004.69;;;24.11
50206;BMP280;36098;48.390;10.856;2023-05-07T00:08:44;96003.91;;;24.11
50206;BMP280;36098;48.390;10.856;2023-05-07T00:11:09;95999.41;;;24.11
50206;BMP280;36098;48.390;10.856;2023-05-07T00:13:35;96004.47;;;24.08
50206;BMP280;36098;48.390;10.856;2023-05-07T00:16:00;96007.09;;;24.08
50206;BMP280;36098;48.390;10.856;2023-05-07T00:18:25;96006.28;;;24.07
50206;BMP280;36098;48.390;10.856;2023-05-07T00:20:51;95996.81;;;24.06
50206;BMP280;36098;48.390;10.856;2023-05-07T00:23:16;95987.84;;;24.07
50206;BMP280;36098;48.390;10.856;2023-05-07T00:25:41;95998.84;;;24.14
50206;BMP280;36098;48.390;10.856;2023-05-07T00:28:06;95995.69;;;24.12
50206;BMP280;36098;48.390;10.856;2023-05-07T00:30:31;95987.84;;;24.07
50206;BMP280;36098;48.390;10.856;2023-05-07T00:32:57;95997.06;;;24.05
50206;BMP280;36098;48.390;10.856;2023-05-07T00:35:22;95998.44;;;24.02
50206;BMP280;36098;48.390;10.856;2023-05-07T00:37:47;95997.88;;;24.05
50206;BMP280;36098;48.390;10.856;2023-05-07T00:40:13;95999.44;;;24.06
50206;BMP280;36098;48.390;10.856;2023-05-07T00:42:39;95996.81;;;24.06
50206;BMP280;36098;48.390;10.856;2023-05-07T00:45:04;95998.94;;;24.04
50206;BMP280;36098;48.390;10.856;2023-05-07T00:47:30;96003.19;;;24.00
50206;BMP280;36098;48.390;10.856;2023-05-07T00:49:55;96006.91;;;23.99
50206;BMP280;36098;48.390;10.856;2023-05-07T00:52:21;96005.84;;;24.00
50206;BMP280;36098;48.390;10.856;2023-05-07T00:54:48;96001.63;;;23.99
50206;BMP280;36098;48.390;10.856;2023-05-07T00:57:14;95994.22;;;24.01
50206;BMP280;36098;48.390;10.856;2023-05-07T00:59:40;95993.66;;;24.04
50206;BMP280;36098;48.390;10.856;2023-05-07T01:02:06;95993.66;;;24.04
50206;BMP280;36098;48.390;10.856;2023-05-07T01:04:31;95993.22;;;23.97
50206;BMP280;36098;48.390;10.856;2023-05-07T01:06:56;95985.06;;;23.94
50206;BMP280;36098;48.390;10.856;2023-05-07T01:09:23;95988.47;;;23.94
50206;BMP280;36098;48.390;10.856;2023-05-07T01:11:49;95988.47;;;23.94
50206;BMP280;36098;48.390;10.856;2023-05-07T01:14:15;95989.25;;;23.95
50206;BMP280;36098;48.390;10.856;2023-05-07T01:16:40;95987.69;;;23.94
50206;BMP280;36098;48.390;10.856;2023-05-07T01:19:06;95980.84;;;23.93
50206;BMP280;36098;48.390;10.856;2023-05-07T01:21:32;95978.44;;;23.96
50206;BMP280;36098;48.390;10.856;2023-05-07T01:23:58;95980.03;;;23.92
50206;BMP280;36098;48.390;10.856;2023-05-07T01:26:23;95983.19;;;23.94
50206;BMP280;36098;48.390;10.856;2023-05-07T01:28:48;95981.91;;;23.92
50206;BMP280;36098;48.390;10.856;2023-05-07T01:31:14;95974.75;;;23.92
50206;BMP280;36098;48.390;10.856;2023-05-07T01:33:40;95971.41;;;23.87
50206;BMP280;36098;48.390;10.856;2023-05-07T01:36:05;95970.28;;;23.93
50206;BMP280;36098;48.390;10.856;2023-05-07T01:38:32;95983.19;;;23.94
50206;BMP280;36098;48.390;10.856;2023-05-07T01:40:57;95984.00;;;23.95
50206;BMP280;36098;48.390;10.856;2023-05-07T01:43:22;95985.59;;;23.91
50206;BMP280;36098;48.390;10.856;2023-05-07T01:45:48;95985.63;;;23.86
50206;BMP280;36098;48.390;10.856;2023-05-07T01:48:14;95981.72;;;23.83
50206;BMP280;36098;48.390;10.856;2023-05-07T01:50:40;95985.91;;;23.84
50206;BMP280;36098;48.390;10.856;2023-05-07T01:53:06;95988.25;;;23.86
50206;BMP280;36098;48.390;10.856;2023-05-07T01:55:31;95988.56;;;23.84
50206;BMP280;36098;48.390;10.856;2023-05-07T01:57:56;95999.34;;;23.88
50206;BMP280;36098;48.390;10.856;2023-05-07T02:00:21;95994.91;;;23.83
50206;BMP280;36098;48.390;10.856;2023-05-07T02:02:47;95989.31;;;23.85
50206;BMP280;36098;48.390;10.856;2023-05-07T02:05:12;95995.88;;;23.92
50206;BMP280;36098;48.390;10.856;2023-05-07T02:07:37;95997.53;;;23.83
50206;BMP280;36098;48.390;10.856;2023-05-07T02:10:02;95993.56;;;23.81
50206;BMP280;36098;48.390;10.856;2023-05-07T02:12:28;95995.97;;;23.82
50206;BMP280;36098;48.390;10.856;2023-05-07T02:14:53;95993.03;;;23.79
50206;BMP280;36098;48.390;10.856;2023-05-07T02:17:18;95990.69;;;23.82
50206;BMP280;36098;48.390;10.856;2023-05-07T02:19:43;95985.94;;;23.79
50206;BMP280;36098;48.390;10.856;2023-05-07T02:22:09;95988.25;;;23.86
50206;BMP280;36098;48.390;10.856;2023-05-07T02:24:34;95987.50;;;23.80
50206;BMP280;36098;48.390;10.856;2023-05-07T02:26:59;95986.72;;;23.80
50206;BMP280;36098;48.390;10.856;2023-05-07T02:29:25;95988.06;;;23.77
50206;BMP280;36098;48.390;10.856;2023-05-07T02:31:50;95986.16;;;23.88
50206;BMP280;36098;48.390;10.856;2023-05-07T02:34:17;95987.50;;;23.85
50206;BMP280;36098;48.390;10.856;2023-05-07T02:36:43;95983.28;;;23.84
50206;BMP280;36098;48.390;10.856;2023-05-07T02:39:08;95979.59;;;23.80
50206;BMP280;36098;48.390;10.856;2023-05-07T02:41:33;95981.44;;;23.80
50206;BMP280;36098;48.390;10.856;2023-05-07T02:43:58;95982.00;;;23.77
50206;BMP280;36098;48.390;10.856;2023-05-07T02:46:23;95981.72;;;23.83
50206;BMP280;36098;48.390;10.856;2023-05-07T02:48:49;95975.66;;;23.78
50206;BMP280;36098;48.390;10.856;2023-05-07T02:51:14;95983.81;;;23.81
50206;BMP280;36098;48.390;10.856;2023-05-07T02:53:39;95979.59;;;23.85
50206;BMP280;36098;48.390;10.856;2023-05-07T02:56:04;95974.59;;;23.79
50206;BMP280;36098;48.390;10.856;2023-05-07T02:58:30;95973.81;;;23.78
50206;BMP280;36098;48.390;10.856;2023-05-07T03:00:55;95981.22;;;23.76
50206;BMP280;36098;48.390;10.856;2023-05-07T03:03:21;95975.16;;;23.76
50206;BMP280;36098;48.390;10.856;2023-05-07T03:05:46;95971.19;;;23.73
50206;BMP280;36098;48.390;10.856;2023-05-07T03:08:11;95975.38;;;23.84
50206;BMP280;36098;48.390;10.856;2023-05-07T03:10:37;95974.31;;;23.80
50206;BMP280;36098;48.390;10.856;2023-05-07T03:13:02;95964.84;;;23.74
50206;BMP280;36098;48.390;10.856;2023-05-07T03:15:27;95962.22;;;23.74
50206;BMP280;36098;48.390;10.856;2023-05-07T03:17:52;95965.16;;;23.73
50206;BMP280;36098;48.390;10.856;2023-05-07T03:20:18;95968.84;;;23.72
50206;BMP280;36098;48.390;10.856;2023-05-07T03:22:43;95957.75;;;23.75
50206;BMP280;36098;48.390;10.856;2023-05-07T03:25:09;95962.78;;;23.71
50206;BMP280;36098;48.390;10.856;2023-05-07T03:27:35;95966.47;;;23.70
50206;BMP280;36098;48.390;10.856;2023-05-07T03:30:00;95959.06;;;23.77
50206;BMP280;36098;48.390;10.856;2023-05-07T03:32:25;95970.38;;;23.83
50206;BMP280;36098;48.390;10.856;2023-05-07T03:34:50;95972.19;;;23.87
50206;BMP280;36098;48.390;10.856;2023-05-07T03:37:15;95969.59;;;23.82
50206;BMP280;36098;48.390;10.856;2023-05-07T03:39:41;95975.94;;;23.76
50206;BMP280;36098;48.390;10.856;2023-05-07T03:42:06;95974.38;;;23.70
50206;BMP280;36098;48.390;10.856;2023-05-07T03:44:31;95992.84;;;23.70
50206;BMP280;36098;48.390;10.856;2023-05-07T03:46:56;95988.06;;;23.72
50206;BMP280;36098;48.390;10.856;2023-05-07T03:49:21;95995.47;;;23.70
50206;BMP280;36098;48.390;10.856;2023-05-07T03:51:46;95999.66;;;23.76
50206;BMP280;36098;48.390;10.856;2023-05-07T03:54:12;96007.53;;;23.86
50206;BMP280;36098;48.390;10.856;2023-05-07T03:56:37;96005.50;;;23.68
50206;BMP280;36098;48.390;10.856;2023-05-07T03:59:02;96003.69;;;23.64
50206;BMP280;36098;48.390;10.856;2023-05-07T04:01:28;96002.91;;;23.63
50206;BMP280;36098;48.390;10.856;2023-05-07T04:03:53;96019.28;;;23.60
50206;BMP280;36098;48.390;10.856;2023-05-07T04:06:18;96005.03;;;23.61
50206;BMP280;36098;48.390;10.856;2023-05-07T04:08:43;96024.50;;;23.65
50206;BMP280;36098;48.390;10.856;2023-05-07T04:11:08;96012.91;;;23.66
50206;BMP280;36098;48.390;10.856;2023-05-07T04:13:33;96005.81;;;23.62
50206;BMP280;36098;48.390;10.856;2023-05-07T04:16:00;96003.44;;;23.65
50206;BMP280;36098;48.390;10.856;2023-05-07T04:18:25;96005.56;;;23.63
50206;BMP280;36098;48.390;10.856;2023-05-07T04:20:51;96018.22;;;23.61
50206;BMP280;36098;48.390;10.856;2023-05-07T04:23:16;96004.75;;;23.68
50206;BMP280;36098;48.390;10.856;2023-05-07T04:25:41;96016.66;;;23.60
50206;BMP280;36098;48.390;10.856;2023-05-07T04:28:06;96009.25;;;23.62
50206;BMP280;36098;48.390;10.856;2023-05-07T04:30:31;96012.66;;;23.63
50206;BMP280;36098;48.390;10.856;2023-05-07T04:32:56;96007.38;;;23.63
50206;BMP280;36098;48.390;10.856;2023-05-07T04:35:22;96024.03;;;23.58
50206;BMP280;36098;48.390;10.856;2023-05-07T04:37:47;96007.13;;;23.64
50206;BMP280;36098;48.390;10.856;2023-05-07T04:40:13;96010.78;;;23.68
50206;BMP280;36098;48.390;10.856;2023-05-07T04:42:38;96020.84;;;23.61
50206;BMP280;36098;48.390;10.856;2023-05-07T04:45:03;96008.75;;;23.60
50206;BMP280;36098;48.390;10.856;2023-05-07T04:47:29;95999.78;;;23.61
50206;BMP280;36098;48.390;10.856;2023-05-07T04:49:55;96014.28;;;23.59
50206;BMP280;36098;48.390;10.856;2023-05-07T04:52:20;96012.69;;;23.58
50206;BMP280;36098;48.390;10.856;2023-05-07T04:54:45;96022.47;;;23.52
50206;BMP280;36098;48.390;10.856;2023-05-07T04:57:10;96025.06;;;23.62
50206;BMP280;36098;48.390;10.856;2023-05-07T04:59:35;96020.84;;;23.61
50206;BMP280;36098;48.390;10.856;2023-05-07T05:02:01;96026.13;;;23.56
50206;BMP280;36098;48.390;10.856;2023-05-07T05:04:26;96021.94;;;23.55
50206;BMP280;36098;48.390;10.856;2023-05-07T05:06:51;96030.38;;;23.57
50206;BMP280;36098;48.390;10.856;2023-05-07T05:09:16;96029.84;;;23.55
50206;BMP280;36098;48.390;10.856;2023-05-07T05:11:42;96028.25;;;23.59
50206;BMP280;36098;48.390;10.856;2023-05-07T05:14:07;96027.19;;;23.55
50206;BMP280;36098;48.390;10.856;2023-05-07T05:16:32;96016.13;;;23.58
50206;BMP280;36098;48.390;10.856;2023-05-07T05:18:57;96017.19;;;23.57
50206;BMP280;36098;48.390;10.856;2023-05-07T05:21:23;96020.34;;;23.54
50206;BMP280;36098;48.390;10.856;2023-05-07T05:23:48;96018.00;;;23.53
50206;BMP280;36098;48.390;10.856;2023-05-07T05:26:13;96004.53;;;23.59
50206;BMP280;36098;48.390;10.856;2023-05-07T05:28:38;96021.94;;;23.55
50206;BMP280;36098;48.390;10.856;2023-05-07T05:31:04;96018.53;;;23.55
50206;BMP280;36098;48.390;10.856;2023-05-07T05:33:29;96017.22;;;23.52
50206;BMP280;36098;48.390;10.856;2023-05-07T05:35:55;96014.56;;;23.52
50206;BMP280;36098;48.390;10.856;2023-05-07T05:38:20;96003.22;;;23.57
50206;BMP280;36098;48.390;10.856;2023-05-07T05:40:45;96018.78;;;23.53
50206;BMP280;36098;48.390;10.856;2023-05-07T05:43:11;96020.13;;;23.51
50206;BMP280;36098;48.390;10.856;2023-05-07T05:45:36;96016.19;;;23.48
50206;BMP280;36098;48.390;10.856;2023-05-07T05:48:01;96020.91;;;23.51
50206;BMP280;36098;48.390;10.856;2023-05-07T05:50:26;96021.47;;;23.48
50206;BMP280;36098;48.390;10.856;2023-05-07T05:52:51;96025.63;;;23.54
50206;BMP280;36098;48.390;10.856;2023-05-07T05:55:17;96029.88;;;23.50
50206;BMP280;36098;48.390;10.856;2023-05-07T05:57:42;96022.56;;;23.42
50206;BMP280;36098;48.390;10.856;2023-05-07T06:00:07;96022.56;;;23.42
50206;BMP280;36098;48.390;10.856;2023-05-07T06:02:33;96026.75;;;23.43
50206;BMP280;36098;48.390;10.856;2023-05-07T06:04:58;96027.81;;;23.42
50206;BMP280;36098;48.390;10.856;2023-05-07T06:07:23;96024.91;;;23.44
50206;BMP280;36098;48.390;10.856;2023-05-07T06:09:48;96028.59;;;23.43
50206;BMP280;36098;48.390;10.856;2023-05-07T06:12:13;96021.19;;;23.45
50206;BMP280;36098;48.390;10.856;2023-05-07T06:14:38;96024.91;;;23.44
50206;BMP280;36098;48.390;10.856;2023-05-07T06:17:04;96027.06;;;23.37
50206;BMP280;36098;48.390;10.856;2023-05-07T06:19:29;96026.13;;;23.56
50206;BMP280;36098;48.390;10.856;2023-05-07T06:21:54;96021.22;;;23.88
50206;BMP280;36098;48.390;10.856;2023-05-07T06:24:21;96017.84;;;23.78
50206;BMP280;36098;48.390;10.856;2023-05-07T06:26:46;96020.00;;;23.71
50206;BMP280;36098;48.390;10.856;2023-05-07T06:29:12;96017.44;;;23.99
50206;BMP280;36098;48.390;10.856;2023-05-07T06:31:37;96025.38;;;23.94
50206;BMP280;36098;48.390;10.856;2023-05-07T06:34:02;96024.91;;;23.87
50206;BMP280;36098;48.390;10.856;2023-05-07T06:36:28;96022.56;;;24.19
50206;BMP280;36098;48.390;10.856;2023-05-07T06:38:53;96029.66;;;24.19
50206;BMP280;36098;48.390;10.856;2023-05-07T06:41:18;96028.78;;;24.00
50206;BMP280;36098;48.390;10.856;2023-05-07T06:43:43;96038.34;;;24.24
50206;BMP280;36098;48.390;10.856;2023-05-07T06:46:09;96043.00;;;24.32
50206;BMP280;36098;48.390;10.856;2023-05-07T06:48:34;96041.72;;;24.30
50206;BMP280;36098;48.390;10.856;2023-05-07T06:50:59;96054.28;;;24.09
50206;BMP280;36098;48.390;10.856;2023-05-07T06:53:24;96041.28;;;23.84
50206;BMP280;36098;48.390;10.856;2023-05-07T06:55:51;96050.31;;;23.68
50206;BMP280;36098;48.390;10.856;2023-05-07T06:58:17;96054.09;;;23.57
50206;BMP280;36098;48.390;10.856;2023-05-07T07:00:42;96050.41;;;23.53
50206;BMP280;36098;48.390;10.856;2023-05-07T07:03:07;96054.84;;;23.63
50206;BMP280;36098;48.390;10.856;2023-05-07T07:05:32;96054.53;;;23.69
50206;BMP280;36098;48.390;10.856;2023-05-07T07:07:58;96056.31;;;23.79
50206;BMP280;36098;48.390;10.856;2023-05-07T07:10:23;96056.06;;;23.75
50206;BMP280;36098;48.390;10.856;2023-05-07T07:12:48;96058.25;;;23.68
50206;BMP280;36098;48.390;10.856;2023-05-07T07:15:14;96057.22;;;23.64
50206;BMP280;36098;48.390;10.856;2023-05-07T07:17:39;96061.22;;;23.57
50206;BMP280;36098;48.390;10.856;2023-05-07T07:20:05;96061.25;;;23.52
50206;BMP280;36098;48.390;10.856;2023-05-07T07:22:30;96049.94;;;23.46
50206;BMP280;36098;48.390;10.856;2023-05-07T07:24:55;96057.53;;;23.53
50206;BMP280;36098;48.390;10.856;2023-05-07T07:27:20;96058.09;;;23.45
50206;BMP280;36098;48.390;10.856;2023-05-07T07:29:46;96054.94;;;23.43
50206;BMP280;36098;48.390;10.856;2023-05-07T07:32:11;96060.00;;;23.39
50206;BMP280;36098;48.390;10.856;2023-05-07T07:34:36;96058.69;;;23.37
50206;BMP280;36098;48.390;10.856;2023-05-07T07:37:01;96059.75;;;23.36
50206;BMP280;36098;48.390;10.856;2023-05-07T07:39:30;96063.19;;;23.31
50206;BMP280;36098;48.390;10.856;2023-05-07T07:41:55;96057.97;;;23.22
50206;BMP280;36098;48.390;10.856;2023-05-07T07:44:21;96061.88;;;23.24
50206;BMP280;36098;48.390;10.856;2023-05-07T07:46:46;96063.47;;;23.25
50206;BMP280;36098;48.390;10.856;2023-05-07T07:49:11;96057.94;;;23.27
50206;BMP280;36098;48.390;10.856;2023-05-07T07:51:36;96060.81;;;23.30
50206;BMP280;36098;48.390;10.856;2023-05-07T07:54:01;96057.41;;;23.29
50206;BMP280;36098;48.390;10.856;2023-05-07T07:56:27;96055.03;;;23.28
50206;BMP280;36098;48.390;10.856;2023-05-07T07:58:52;96054.50;;;23.26
50206;BMP280;36098;48.390;10.856;2023-05-07T08:01:18;96064.28;;;23.26
50206;BMP280;36098;48.390;10.856;2023-05-07T08:03:43;96062.41;;;23.26
50206;BMP280;36098;48.390;10.856;2023-05-07T08:06:08;96065.03;;;23.26
50206;BMP280;36098;48.390;10.856;2023-05-07T08:08:33;96064.28;;;23.26
50206;BMP280;36098;48.390;10.856;2023-05-07T08:11:00;96062.94;;;23.28
50206;BMP280;36098;48.390;10.856;2023-05-07T08:13:25;96067.41;;;23.27
50206;BMP280;36098;48.390;10.856;2023-05-07T08:15:50;96068.22;;;23.28
50206;BMP280;36098;48.390;10.856;2023-05-07T08:18:16;96069.53;;;23.26
50206;BMP280;36098;48.390;10.856;2023-05-07T08:20:41;96068.22;;;23.28
50206;BMP280;36098;48.390;10.856;2023-05-07T08:23:07;96079.53;;;23.28
50206;BMP280;36098;48.390;10.856;2023-05-07T08:25:33;96073.75;;;23.27
50206;BMP280;36098;48.390;10.856;2023-05-07T08:27:58;96068.72;;;23.25
50206;BMP280;36098;48.390;10.856;2023-05-07T08:30:23;96064.28;;;23.26
50206;BMP280;36098;48.390;10.856;2023-05-07T08:32:48;96069.00;;;23.28
50206;BMP280;36098;48.390;10.856;2023-05-07T08:35:13;96057.69;;;23.28
50206;BMP280;36098;48.390;10.856;2023-05-07T08:37:39;96073.19;;;23.29
50206;BMP280;36098;48.390;10.856;2023-05-07T08:40:04;96061.09;;;23.28
50206;BMP280;36098;48.390;10.856;2023-05-07T08:42:31;96060.03;;;23.29
50206;BMP280;36098;48.390;10.856;2023-05-07T08:44:57;96064.22;;;23.30
50206;BMP280;36098;48.390;10.856;2023-05-07T08:47:22;96067.69;;;23.31
50206;BMP280;36098;48.390;10.856;2023-05-07T08:49:47;96063.19;;;23.31
50206;BMP280;36098;48.390;10.856;2023-05-07T08:52:13;96062.13;;;23.32
50206;BMP280;36098;48.390;10.856;2023-05-07T08:54:38;96069.75;;;23.34
50206;BMP280;36098;48.390;10.856;2023-05-07T08:57:04;96076.88;;;23.38
50206;BMP280;36098;48.390;10.856;2023-05-07T08:59:29;96073.44;;;23.38
50206;BMP280;36098;48.390;10.856;2023-05-07T09:01:55;96067.38;;;23.37
50206;BMP280;36098;48.390;10.856;2023-05-07T09:04:20;96070.03;;;23.37
50206;BMP280;36098;48.390;10.856;2023-05-07T09:06:45;96068.97;;;23.38
50206;BMP280;36098;48.390;10.856;2023-05-07T09:09:13;96070.53;;;23.39
50206;BMP280;36098;48.390;10.856;2023-05-07T09:11:39;96075.81;;;23.39
50206;BMP280;36098;48.390;10.856;2023-05-07T09:14:04;96063.16;;;23.41
50206;BMP280;36098;48.390;10.856;2023-05-07T09:16:29;96064.72;;;23.42
50206;BMP280;36098;48.390;10.856;2023-05-07T09:18:57;96055.75;;;23.43
50206;BMP280;36098;48.390;10.856;2023-05-07T09:21:22;96060.47;;;23.46
50206;BMP280;36098;48.390;10.856;2023-05-07T09:23:51;96062.06;;;23.47
50206;BMP280;36098;48.390;10.856;2023-05-07T09:26:17;96053.88;;;23.49
50206;BMP280;36098;48.390;10.856;2023-05-07T09:28:44;96055.16;;;23.51
50206;BMP280;36098;48.390;10.856;2023-05-07T09:31:11;96059.94;;;23.49
50206;BMP280;36098;48.390;10.856;2023-05-07T09:33:37;96056.75;;;23.52
50206;BMP280;36098;48.390;10.856;2023-05-07T09:36:03;96048.84;;;23.52
50206;BMP280;36098;48.390;10.856;2023-05-07T09:38:28;96057.25;;;23.54
50206;BMP280;36098;48.390;10.856;2023-05-07T09:41:06;96053.56;;;23.55
50206;BMP280;36098;48.390;10.856;2023-05-07T09:43:33;96062.00;;;23.57
50206;BMP280;36098;48.390;10.856;2023-05-07T09:46:00;96059.38;;;23.57
50206;BMP280;36098;48.390;10.856;2023-05-07T09:48:26;96062.00;;;23.57
50206;BMP280;36098;48.390;10.856;2023-05-07T09:50:52;96056.44;;;23.59
50206;BMP280;36098;48.390;10.856;2023-05-07T09:53:21;96055.69;;;23.58
50206;BMP280;36098;48.390;10.856;2023-05-07T09:55:47;96053.03;;;23.58
50206;BMP280;36098;48.390;10.856;2023-05-07T09:58:12;96056.19;;;23.60
50206;BMP280;36098;48.390;10.856;2023-05-07T10:00:37;96049.06;;;23.61
50206;BMP280;36098;48.390;10.856;2023-05-07T10:03:03;96055.34;;;23.65
50206;BMP280;36098;48.390;10.856;2023-05-07T10:05:29;96048.25;;;23.65
50206;BMP280;36098;48.390;10.856;2023-05-07T10:07:55;96052.97;;;23.68
50206;BMP280;36098;48.390;10.856;2023-05-07T10:10:22;96059.25;;;23.72
50206;BMP280;36098;48.390;10.856;2023-05-07T10:12:48;96056.31;;;23.79
50206;BMP280;36098;48.390;10.856;2023-05-07T10:15:14;96057.63;;;23.86
50206;BMP280;36098;48.390;10.856;2023-05-07T10:17:40;96050.19;;;23.93
50206;BMP280;36098;48.390;10.856;2023-05-07T10:20:05;96044.38;;;23.96
50206;BMP280;36098;48.390;10.856;2023-05-07T10:22:33;96048.06;;;23.95
50206;BMP280;36098;48.390;10.856;2023-05-07T10:25:02;96049.09;;;23.99
50206;BMP280;36098;48.390;10.856;2023-05-07T10:27:27;96052.81;;;23.98
50206;BMP280;36098;48.390;10.856;2023-05-07T10:30:00;96045.47;;;23.90
50206;BMP280;36098;48.390;10.856;2023-05-07T10:32:40;96061.53;;;23.94
50206;BMP280;36098;48.390;10.856;2023-05-07T10:35:07;96047.53;;;23.93
50206;BMP280;36098;48.390;10.856;2023-05-07T10:37:34;96049.41;;;23.93
50206;BMP280;36098;48.390;10.856;2023-05-07T10:39:59;96049.41;;;23.93
50206;BMP280;36098;48.390;10.856;2023-05-07T10:42:24;96051.75;;;23.94
50206;BMP280;36098;48.390;10.856;2023-05-07T10:44:50;96047.53;;;23.98
50206;BMP280;36098;48.390;10.856;2023-05-07T10:47:15;96046.94;;;24.06
50206;BMP280;36098;48.390;10.856;2023-05-07T10:52:10;96048.13;;;24.19
50206;BMP280;36098;48.390;10.856;2023-05-07T10:54:36;96048.44;;;24.12
50206;BMP280;36098;48.390;10.856;2023-05-07T10:57:26;96046.09;;;24.11
50206;BMP280;36098;48.390;10.856;2023-05-07T10:59:46;96051.66;;;24.09
50206;BMP280;36098;48.390;10.856;2023-05-07T11:02:11;96046.94;;;24.06
50206;BMP280;36098;48.390;10.856;2023-05-07T11:04:38;96044.84;;;24.03
50206;BMP280;36098;48.390;10.856;2023-05-07T11:12:17;96036.44;;;24.01
50206;BMP280;36098;48.390;10.856;2023-05-07T11:17:08;96039.22;;;24.15
50206;BMP280;36098;48.390;10.856;2023-05-07T11:19:52;96040.53;;;24.17
50206;BMP280;36098;48.390;10.856;2023-05-07T11:24:55;96027.91;;;24.09
50206;BMP280;36098;48.390;10.856;2023-05-07T11:27:23;96022.63;;;24.09
50206;BMP280;36098;48.390;10.856;2023-05-07T11:29:49;96041.59;;;24.11
50206;BMP280;36098;48.390;10.856;2023-05-07T11:32:15;96034.75;;;24.10
50206;BMP280;36098;48.390;10.856;2023-05-07T11:34:40;96028.91;;;24.13
50206;BMP280;36098;48.390;10.856;2023-05-07T11:37:05;96022.06;;;24.12
50206;BMP280;36098;48.390;10.856;2023-05-07T11:39:31;96016.25;;;24.15
50206;BMP280;36098;48.390;10.856;2023-05-07T11:41:58;96023.13;;;24.16
50206;BMP280;36098;48.390;10.856;2023-05-07T11:44:23;96023.13;;;24.16
50206;BMP280;36098;48.390;10.856;2023-05-07T11:46:48;96019.13;;;24.19
50206;BMP280;36098;48.390;10.856;2023-05-07T11:49:14;96025.72;;;24.21
50206;BMP280;36098;48.390;10.856;2023-05-07T11:51:39;96024.63;;;24.22
50206;BMP280;36098;48.390;10.856;2023-05-07T11:54:05;96021.19;;;24.22
50206;BMP280;36098;48.390;10.856;2023-05-07T11:56:36;96020.94;;;24.23
50206;BMP280;36098;48.390;10.856;2023-05-07T11:59:01;96019.06;;;24.24
50206;BMP280;36098;48.390;10.856;2023-05-07T12:01:26;96022.25;;;24.26
50206;BMP280;36098;48.390;10.856;2023-05-07T12:03:51;96015.03;;;24.31
50206;BMP280;36098;48.390;10.856;2023-05-07T12:06:17;96005.81;;;24.34
50206;BMP280;36098;48.390;10.856;2023-05-07T12:08:42;96014.28;;;24.31
50206;BMP280;36098;48.390;10.856;2023-05-07T12:11:29;96009.22;;;24.34
50206;BMP280;36098;48.390;10.856;2023-05-07T12:13:53;96006.06;;;24.32
50206;BMP280;36098;48.390;10.856;2023-05-07T12:16:19;96003.94;;;24.34
50206;BMP280;36098;48.390;10.856;2023-05-07T12:18:44;96005.53;;;24.35
50206;BMP280;36098;48.390;10.856;2023-05-07T12:21:09;96009.44;;;24.38
50206;BMP280;36098;48.390;10.856;2023-05-07T12:23:35;96009.19;;;24.39
50206;BMP280;36098;48.390;10.856;2023-05-07T12:26:01;96007.59;;;24.38
50206;BMP280;36098;48.390;10.856;2023-05-07T12:28:26;96006.25;;;24.41
50206;BMP280;36098;48.390;10.856;2023-05-07T12:30:52;96001.78;;;24.41
50206;BMP280;36098;48.390;10.856;2023-05-07T12:33:18;95997.00;;;24.43
50206;BMP280;36098;48.390;10.856;2023-05-07T12:35:44;95993.28;;;24.44
50206;BMP280;36098;48.390;10.856;2023-05-07T12:38:12;95994.34;;;24.43
50206;BMP280;36098;48.390;10.856;2023-05-07T12:40:41;95993.22;;;24.49
50206;BMP280;36098;48.390;10.856;2023-05-07T12:43:07;95993.22;;;24.49
50206;BMP280;36098;48.390;10.856;2023-05-07T12:45:38;95987.44;;;24.47
50206;BMP280;36098;48.390;10.856;2023-05-07T12:48:04;95989.28;;;24.52
50206;BMP280;36098;48.390;10.856;2023-05-07T12:50:32;95994.44;;;24.62
50206;BMP280;36098;48.390;10.856;2023-05-07T12:52:58;95989.84;;;24.72
50206;BMP280;36098;48.390;10.856;2023-05-07T12:55:23;95995.69;;;24.69
50206;BMP280;36098;48.390;10.856;2023-05-07T12:57:49;95994.00;;;24.78
50206;BMP280;36098;48.390;10.856;2023-05-07T13:00:16;95995.78;;;24.83
50206;BMP280;36098;48.390;10.856;2023-05-07T13:02:42;95992.88;;;24.84
50206;BMP280;36098;48.390;10.856;2023-05-07T13:05:09;95991.06;;;24.80
50206;BMP280;36098;48.390;10.856;2023-05-07T13:07:34;95991.41;;;24.73
50206;BMP280;36098;48.390;10.856;2023-05-07T13:09:59;96002.34;;;24.67
50206;BMP280;36098;48.390;10.856;2023-05-07T13:12:25;95989.97;;;24.62
50206;BMP280;36098;48.390;10.856;2023-05-07T13:14:50;95993.75;;;24.56
50206;BMP280;36098;48.390;10.856;2023-05-07T13:17:15;95986.66;;;24.52
50206;BMP280;36098;48.390;10.856;2023-05-07T13:19:40;95993.78;;;24.46
50206;BMP280;36098;48.390;10.856;2023-05-07T13:22:05;95986.25;;;24.63
50206;BMP280;36098;48.390;10.856;2023-05-07T13:24:31;95987.25;;;24.67
50206;BMP280;36098;48.390;10.856;2023-05-07T13:26:56;95981.06;;;24.53
50206;BMP280;36098;48.390;10.856;2023-05-07T13:29:21;95983.88;;;24.62
50206;BMP280;36098;48.390;10.856;2023-05-07T13:31:53;95985.59;;;24.76
50206;BMP280;36098;48.390;10.856;2023-05-07T13:34:18;95978.94;;;24.79
50206;BMP280;36098;48.390;10.856;2023-05-07T13:36:44;95979.56;;;24.94
50206;BMP280;36098;48.390;10.856;2023-05-07T13:39:09;95984.72;;;25.04
50206;BMP280;36098;48.390;10.856;2023-05-07T13:41:34;95981.50;;;25.07
50206;BMP280;36098;48.390;10.856;2023-05-07T13:44:00;95979.47;;;25.22
50206;BMP280;36098;48.390;10.856;2023-05-07T13:46:25;95978.44;;;25.00
50206;BMP280;36098;48.390;10.856;2023-05-07T13:48:50;95984.06;;;25.12
50206;BMP280;36098;48.390;10.856;2023-05-07T13:51:16;95983.00;;;25.13
50206;BMP280;36098;48.390;10.856;2023-05-07T13:53:41;95982.59;;;24.83
50206;BMP280;36098;48.390;10.856;2023-05-07T13:58:32;95982.47;;;25.34
50206;BMP280;36098;48.390;10.856;2023-05-07T14:00:57;95985.13;;;25.34
50206;BMP280;36098;48.390;10.856;2023-05-07T14:03:22;95986.53;;;25.27